createdAt,value
2019-05-06T00:01:53.962Z,3.00
2019-05-06T00:04:24.693Z,3.30
2019-05-06T00:06:54.830Z,4.17
2019-05-06T00:09:24.026Z,3.43
2019-05-06T00:11:54.402Z,3.13
2019-05-06T00:14:23.646Z,3.27
2019-05-06T00:16:54.562Z,4.07
2019-05-06T00:19:24.593Z,4.17
2019-05-06T00:21:54.069Z,3.60
2019-05-06T00:24:25.094Z,3.83
2019-05-06T00:27:14.142Z,4.23
2019-05-06T00:29:43.900Z,3.77
2019-05-06T00:32:14.959Z,3.97
2019-05-06T00:34:43.721Z,3.20
2019-05-06T00:37:14.455Z,3.73
2019-05-06T00:39:44.493Z,4.33
2019-05-06T00:42:24.609Z,4.27
2019-05-06T00:44:53.742Z,5.20
2019-05-06T00:47:24.117Z,4.53
2019-05-06T00:49:54.571Z,3.77
2019-05-06T00:52:23.912Z,4.77
2019-05-06T00:54:54.672Z,4.30
2019-05-06T00:57:24.978Z,3.83
2019-05-06T00:59:53.906Z,3.90
2019-05-06T01:02:23.476Z,4.33
2019-05-06T01:04:54.171Z,4.10
2019-05-06T01:07:23.681Z,3.63
2019-05-06T01:09:54.031Z,4.07
2019-05-06T01:12:24.010Z,3.87
2019-05-06T01:14:54.606Z,4.30
2019-05-06T01:17:24.366Z,4.23
2019-05-06T01:19:54.112Z,4.90
2019-05-06T01:22:24.671Z,4.37
2019-05-06T01:24:53.126Z,4.50
2019-05-06T01:27:21.689Z,3.23
2019-05-06T01:29:50.184Z,4.67
2019-05-06T01:32:18.645Z,4.30
2019-05-06T01:34:47.148Z,4.10
2019-05-06T01:37:15.717Z,4.20
2019-05-06T01:39:57.960Z,4.00
2019-05-06T01:42:46.500Z,4.53
2019-05-06T01:45:15.319Z,4.77
2019-05-06T01:47:43.876Z,4.50
2019-05-06T01:50:14.007Z,4.30
2019-05-06T01:52:44.301Z,4.87
2019-05-06T01:55:14.239Z,4.27
2019-05-06T01:57:44.446Z,4.30
2019-05-06T02:00:14.155Z,4.30
2019-05-06T02:02:43.890Z,3.93
2019-05-06T02:05:13.837Z,4.80
2019-05-06T02:07:44.141Z,5.20
2019-05-06T02:10:14.170Z,4.67
2019-05-06T02:12:44.346Z,4.40
2019-05-06T02:15:14.621Z,4.43
2019-05-06T02:17:44.078Z,3.90
2019-05-06T02:20:13.762Z,5.07
2019-05-06T02:22:53.854Z,3.50
2019-05-06T02:25:24.459Z,4.40
2019-05-06T02:27:54.157Z,5.00
2019-05-06T02:30:27.126Z,5.50
2019-05-06T02:33:04.328Z,5.20
2019-05-06T02:35:35.049Z,4.13
2019-05-06T02:38:04.875Z,4.40
2019-05-06T02:40:33.729Z,4.27
2019-05-06T02:43:03.328Z,4.20
2019-05-06T02:45:33.428Z,4.83
2019-05-06T02:48:22.721Z,4.70
2019-05-06T02:50:53.778Z,5.57
2019-05-06T02:53:23.981Z,4.03
2019-05-06T02:55:53.210Z,4.70
2019-05-06T02:58:23.755Z,4.60
2019-05-06T03:00:53.917Z,3.80
2019-05-06T03:03:23.292Z,4.53
2019-05-06T03:05:53.198Z,4.33
2019-05-06T03:08:23.730Z,5.17
2019-05-06T03:10:53.413Z,4.20
2019-05-06T03:13:23.652Z,5.00
2019-05-06T03:15:54.111Z,4.97
2019-05-06T03:18:23.572Z,5.60
2019-05-06T03:20:56.857Z,5.40
2019-05-06T03:23:27.382Z,6.30
2019-05-06T03:25:55.852Z,4.70
2019-05-06T03:28:24.353Z,4.90
2019-05-06T03:30:56.683Z,5.60
2019-05-06T03:33:47.507Z,5.03
2019-05-06T03:36:05.323Z,5.70
2019-05-06T03:38:23.531Z,5.00
2019-05-06T03:40:53.808Z,5.47
2019-05-06T03:43:23.285Z,5.97
2019-05-06T03:46:14.231Z,5.27
2019-05-06T03:49:00.209Z,5.83
2019-05-06T03:51:28.802Z,4.77
2019-05-06T03:53:59.966Z,5.30
2019-05-06T03:56:29.292Z,7.30
2019-05-06T03:58:58.952Z,6.00
2019-05-06T04:01:27.867Z,6.23
2019-05-06T04:03:57.427Z,5.40
2019-05-06T04:06:26.879Z,6.70
2019-05-06T04:08:56.758Z,5.90
2019-05-06T04:11:25.772Z,6.00
2019-05-06T04:13:55.716Z,5.87
2019-05-06T04:16:26.046Z,5.60
2019-05-06T04:19:13.133Z,5.87
2019-05-06T04:21:59.856Z,6.20
2019-05-06T04:24:30.214Z,6.80
2019-05-06T04:27:47.440Z,7.33
2019-05-06T04:30:16.680Z,5.37
2019-05-06T04:32:45.319Z,6.20
2019-05-06T04:35:14.114Z,5.37
2019-05-06T04:37:43.242Z,6.07
2019-05-06T04:40:13.130Z,5.20
2019-05-06T04:42:44.423Z,6.30
2019-05-06T04:45:13.458Z,6.50
2019-05-06T04:47:43.381Z,5.87
2019-05-06T04:50:13.140Z,5.67
2019-05-06T04:52:43.203Z,5.63
2019-05-06T04:55:14.005Z,6.33
2019-05-06T04:57:44.023Z,7.40
2019-05-06T05:00:13.354Z,5.90
2019-05-06T05:02:43.056Z,5.67
2019-05-06T05:05:13.894Z,5.13
2019-05-06T05:07:42.962Z,4.83
2019-05-06T05:10:23.292Z,5.50
2019-05-06T05:12:53.834Z,4.60
2019-05-06T05:15:27.162Z,4.70
2019-05-06T05:18:13.758Z,5.70
2019-05-06T05:20:46.621Z,5.60
2019-05-06T05:23:12.691Z,5.30
2019-05-06T05:25:42.551Z,5.07
2019-05-06T05:28:13.123Z,5.53
2019-05-06T05:30:42.955Z,5.13
2019-05-06T05:33:12.230Z,5.10
2019-05-06T05:35:43.129Z,4.87
2019-05-06T05:38:13.057Z,4.70
2019-05-06T05:40:43.035Z,4.90
2019-05-06T05:43:28.492Z,6.53
2019-05-06T05:45:56.981Z,4.90
2019-05-06T05:48:39.383Z,4.60
2019-05-06T05:51:08.362Z,4.93
2019-05-06T05:53:36.915Z,5.00
2019-05-06T05:56:05.563Z,4.53
2019-05-06T05:58:34.105Z,5.00
2019-05-06T06:01:04.173Z,4.40
2019-05-06T06:03:32.952Z,5.50
2019-05-06T06:06:03.117Z,5.30
2019-05-06T06:08:39.453Z,3.63
2019-05-06T06:11:22.999Z,3.67
2019-05-06T06:13:52.278Z,3.80
2019-05-06T06:16:23.290Z,4.13
2019-05-06T06:19:03.230Z,4.63
2019-05-06T06:21:33.979Z,3.80
2019-05-06T06:24:13.197Z,4.23
2019-05-06T06:26:42.945Z,4.47
2019-05-06T06:29:12.496Z,4.30
2019-05-06T06:31:42.922Z,5.10
2019-05-06T06:34:13.188Z,4.93
2019-05-06T06:36:43.429Z,5.20
2019-05-06T06:39:16.654Z,4.30
2019-05-06T06:41:45.225Z,3.20
2019-05-06T06:44:15.530Z,4.37
2019-05-06T06:46:44.279Z,4.33
2019-05-06T06:49:12.900Z,3.80
2019-05-06T06:51:42.493Z,3.80
2019-05-06T06:54:12.345Z,4.13
2019-05-06T06:57:07.894Z,3.73
2019-05-06T06:59:31.895Z,3.93
2019-05-06T07:02:08.216Z,3.37
2019-05-06T07:04:58.714Z,3.67
2019-05-06T07:07:41.322Z,3.63
2019-05-06T07:09:59.088Z,3.60
2019-05-06T07:12:27.659Z,3.80
2019-05-06T07:15:02.532Z,3.43
2019-05-06T07:17:32.803Z,4.10
2019-05-06T07:20:09.468Z,3.63
2019-05-06T07:22:37.962Z,2.83
2019-05-06T07:25:08.349Z,3.10
2019-05-06T07:27:37.087Z,3.30
2019-05-06T07:30:08.867Z,3.03
2019-05-06T07:32:37.408Z,3.07
2019-05-06T07:35:06.401Z,2.73
2019-05-06T07:37:35.061Z,2.70
2019-05-06T07:40:04.563Z,3.33
2019-05-06T07:42:44.690Z,3.80
2019-05-06T07:45:17.628Z,2.63
2019-05-06T07:47:52.901Z,2.77
2019-05-06T07:50:22.384Z,2.30
2019-05-06T07:53:05.888Z,2.30
2019-05-06T07:55:34.667Z,2.80
2019-05-06T07:58:03.345Z,3.00
2019-05-06T08:00:32.860Z,3.13
2019-05-06T08:03:02.489Z,2.10
2019-05-06T08:05:32.358Z,2.57
2019-05-06T08:08:03.474Z,2.60
2019-05-06T08:10:33.162Z,2.10
2019-05-06T08:13:02.755Z,1.90
2019-05-06T08:15:32.563Z,2.93
2019-05-06T08:18:03.495Z,1.90
2019-05-06T08:20:37.818Z,2.30
2019-05-06T08:23:27.442Z,2.80
2019-05-06T08:26:09.145Z,3.33
2019-05-06T08:28:36.849Z,2.60
2019-05-06T08:30:56.437Z,2.20
2019-05-06T08:33:27.572Z,2.63
2019-05-06T08:36:09.939Z,2.27
2019-05-06T08:38:25.459Z,2.90
2019-05-06T08:40:53.966Z,1.70
2019-05-06T08:43:22.572Z,2.20
2019-05-06T08:45:52.799Z,2.30
2019-05-06T08:48:22.035Z,2.23
2019-05-06T08:50:55.299Z,2.10
2019-05-06T08:53:28.496Z,2.40
2019-05-06T08:55:57.877Z,1.83
2019-05-06T08:58:44.027Z,2.00
2019-05-06T09:01:14.464Z,2.63
2019-05-06T09:03:43.035Z,1.93
2019-05-06T09:06:26.037Z,1.87
2019-05-06T09:08:42.973Z,2.33
2019-05-06T09:11:12.227Z,1.70
2019-05-06T09:13:42.760Z,2.40
2019-05-06T09:16:12.952Z,2.17
2019-05-06T09:18:42.635Z,2.07
2019-05-06T09:21:12.883Z,2.20
2019-05-06T09:23:42.381Z,1.83
2019-05-06T09:26:13.130Z,2.17
2019-05-06T09:28:55.665Z,2.50
2019-05-06T09:31:42.717Z,2.30
2019-05-06T09:34:13.173Z,2.43
2019-05-06T09:36:51.322Z,2.73
2019-05-06T09:39:13.003Z,2.70
2019-05-06T09:41:46.412Z,2.40
2019-05-06T09:44:12.425Z,1.90
2019-05-06T09:46:42.586Z,1.77
2019-05-06T09:49:13.037Z,1.83
2019-05-06T09:51:42.432Z,2.60
2019-05-06T09:54:19.231Z,2.40
2019-05-06T09:56:53.325Z,2.23
2019-05-06T09:59:22.061Z,2.70
2019-05-06T10:01:52.788Z,2.90
2019-05-06T10:04:20.909Z,2.50
2019-05-06T10:06:57.133Z,2.10
2019-05-06T10:09:19.635Z,2.00
2019-05-06T10:11:48.206Z,2.13
2019-05-06T10:14:16.847Z,2.80
2019-05-06T10:16:45.417Z,2.27
2019-05-06T10:19:13.957Z,1.63
2019-05-06T10:21:42.840Z,1.87
2019-05-06T10:24:11.545Z,1.70
2019-05-06T10:26:44.409Z,1.70
2019-05-06T10:29:23.514Z,2.60
2019-05-06T10:31:53.744Z,2.20
2019-05-06T10:34:22.364Z,1.70
2019-05-06T10:37:17.998Z,1.90
2019-05-06T10:39:43.713Z,2.20
2019-05-06T10:42:15.324Z,2.13
2019-05-06T10:44:55.725Z,2.40
2019-05-06T10:47:24.258Z,5.03
2019-05-06T10:49:53.028Z,2.90
2019-05-06T10:52:26.070Z,1.83
2019-05-06T10:54:54.605Z,2.00
2019-05-06T10:57:36.581Z,2.90
2019-05-06T11:00:07.434Z,2.30
2019-05-06T11:02:53.890Z,2.30
2019-05-06T11:05:22.539Z,2.10
2019-05-06T11:07:52.177Z,2.40
2019-05-06T11:10:27.755Z,2.13
2019-05-06T11:12:52.330Z,2.33
2019-05-06T11:15:23.247Z,2.30
2019-05-06T11:17:51.347Z,1.70
2019-05-06T11:20:19.926Z,2.07
2019-05-06T11:22:48.508Z,2.00
2019-05-06T11:25:17.152Z,2.63
2019-05-06T11:27:45.713Z,2.50
2019-05-06T11:30:16.383Z,2.20
2019-05-06T11:33:04.919Z,2.57
2019-05-06T11:35:47.180Z,2.40
2019-05-06T11:38:17.412Z,1.90
2019-05-06T11:40:45.930Z,2.17
2019-05-06T11:43:14.427Z,2.00
2019-05-06T11:45:42.943Z,1.93
2019-05-06T11:48:14.376Z,2.60
2019-05-06T11:50:43.475Z,2.20
2019-05-06T11:53:12.481Z,2.40
2019-05-06T11:55:41.119Z,2.77
2019-05-06T11:58:27.920Z,1.90
2019-05-06T12:00:57.159Z,1.93
2019-05-06T12:03:25.735Z,2.67
2019-05-06T12:05:54.316Z,2.10
2019-05-06T12:08:22.913Z,2.67
2019-05-06T12:10:52.003Z,2.47
2019-05-06T12:13:23.045Z,1.63
2019-05-06T12:15:52.511Z,2.20
2019-05-06T12:18:23.068Z,2.10
2019-05-06T12:20:52.725Z,2.40
2019-05-06T12:23:22.412Z,2.20
2019-05-06T12:25:52.920Z,2.20
2019-05-06T12:28:21.328Z,1.77
2019-05-06T12:30:52.255Z,2.70
2019-05-06T12:33:27.895Z,2.27
2019-05-06T12:35:58.104Z,2.63
2019-05-06T12:38:37.813Z,2.03
2019-05-06T12:41:06.399Z,2.37
2019-05-06T12:43:36.625Z,2.90
2019-05-06T12:46:06.851Z,1.90
2019-05-06T12:48:43.972Z,2.60
2019-05-06T12:51:12.735Z,2.10
2019-05-06T12:53:42.800Z,2.00
2019-05-06T12:56:12.398Z,1.80
2019-05-06T12:58:44.032Z,1.87
2019-05-06T13:01:13.665Z,1.60
2019-05-06T13:03:43.324Z,2.40
2019-05-06T13:06:12.943Z,2.60
2019-05-06T13:08:56.580Z,2.20
2019-05-06T13:11:13.239Z,2.70
2019-05-06T13:13:56.639Z,3.03
2019-05-06T13:16:12.733Z,2.10
2019-05-06T13:18:47.014Z,2.27
2019-05-06T13:21:12.725Z,2.40
2019-05-06T13:23:43.098Z,2.70
2019-05-06T13:26:12.874Z,2.20
2019-05-06T13:28:43.480Z,2.60
2019-05-06T13:31:19.805Z,2.90
2019-05-06T13:33:55.647Z,2.10
2019-05-06T13:36:24.425Z,2.00
2019-05-06T13:39:09.172Z,2.00
2019-05-06T13:41:23.360Z,2.67
2019-05-06T13:44:02.700Z,2.50
2019-05-06T13:46:35.642Z,2.30
2019-05-06T13:49:05.944Z,2.60
2019-05-06T13:51:38.859Z,2.40
2019-05-06T13:54:07.515Z,2.03
2019-05-06T13:56:36.155Z,1.90
2019-05-06T13:59:05.280Z,1.50
2019-05-06T14:01:43.865Z,2.33
2019-05-06T14:04:13.591Z,2.27
2019-05-06T14:06:43.248Z,2.13
2019-05-06T14:09:28.043Z,1.70
2019-05-06T14:11:42.411Z,2.63
2019-05-06T14:14:12.538Z,2.83
2019-05-06T14:16:42.643Z,2.37
2019-05-06T14:19:13.193Z,3.10
2019-05-06T14:21:43.164Z,2.60
2019-05-06T14:24:13.244Z,2.23
2019-05-06T14:26:57.833Z,2.47
2019-05-06T14:29:24.799Z,2.33
2019-05-06T14:31:55.267Z,3.20
2019-05-06T14:34:23.837Z,2.73
2019-05-06T14:36:53.430Z,2.90
2019-05-06T14:39:24.071Z,2.30
2019-05-06T14:41:57.090Z,3.20
2019-05-06T14:44:26.142Z,2.53
2019-05-06T14:46:56.605Z,2.70
2019-05-06T14:49:32.384Z,2.53
2019-05-06T14:52:02.889Z,2.20
2019-05-06T14:54:36.701Z,2.30
2019-05-06T14:57:14.974Z,2.77
2019-05-06T14:59:43.546Z,2.73
2019-05-06T15:02:13.259Z,2.70
2019-05-06T15:04:43.427Z,2.90
2019-05-06T15:07:12.795Z,3.20
2019-05-06T15:09:55.725Z,2.30
2019-05-06T15:12:13.173Z,2.60
2019-05-06T15:14:42.583Z,2.13
2019-05-06T15:17:11.225Z,2.17
2019-05-06T15:19:39.807Z,2.53
2019-05-06T15:22:08.394Z,2.27
2019-05-06T15:24:36.991Z,2.57
2019-05-06T15:27:05.609Z,2.70
2019-05-06T15:29:34.209Z,2.60
2019-05-06T15:32:12.830Z,2.97
2019-05-06T15:37:44.531Z,2.80
2019-05-06T15:40:14.597Z,2.90
2019-05-06T15:42:43.175Z,3.13
2019-05-06T15:45:12.724Z,1.90
2019-05-06T15:47:42.575Z,3.10
2019-05-06T15:50:12.777Z,2.90
2019-05-06T15:52:43.580Z,2.40
2019-05-06T15:55:12.585Z,2.33
2019-05-06T15:57:43.541Z,3.17
2019-05-06T16:00:13.893Z,3.50
2019-05-06T16:02:42.500Z,2.50
2019-05-06T16:05:16.486Z,3.20
2019-05-06T16:07:43.377Z,3.30
2019-05-06T16:10:13.285Z,3.00
2019-05-06T16:12:44.015Z,3.17
2019-05-06T16:15:13.078Z,3.40
2019-05-06T16:17:42.687Z,2.63
2019-05-06T16:20:12.939Z,2.70
2019-05-06T16:22:44.466Z,2.77
2019-05-06T16:25:14.785Z,3.30
2019-05-06T16:27:44.233Z,2.80
2019-05-06T16:30:14.736Z,2.33
2019-05-06T16:32:44.028Z,2.20
2019-05-06T16:35:14.315Z,2.60
2019-05-06T16:37:43.085Z,2.93
2019-05-06T16:40:12.524Z,2.57
2019-05-06T16:42:45.340Z,2.50
2019-05-06T16:45:12.567Z,3.50
2019-05-06T16:47:44.442Z,3.73
2019-05-06T16:50:14.998Z,4.67
2019-05-06T16:52:46.629Z,2.83
2019-05-06T16:55:24.039Z,3.10
2019-05-06T16:58:06.120Z,3.13
2019-05-06T17:00:39.194Z,3.13
2019-05-06T17:03:09.500Z,2.83
2019-05-06T17:05:39.740Z,3.43
2019-05-06T17:08:08.365Z,2.60
2019-05-06T17:10:40.025Z,3.03
2019-05-06T17:13:07.176Z,3.97
2019-05-06T17:15:35.756Z,3.17
2019-05-06T17:18:04.506Z,3.37
2019-05-06T17:20:33.095Z,3.07
2019-05-06T17:23:02.848Z,3.00
2019-05-06T17:25:33.524Z,2.70
2019-05-06T17:28:03.937Z,3.43
2019-05-06T17:30:43.129Z,3.90
2019-05-06T17:33:29.583Z,3.23
2019-05-06T17:35:58.189Z,3.07
2019-05-06T17:38:29.387Z,2.80
2019-05-06T17:40:57.962Z,3.00
2019-05-06T17:43:26.539Z,3.00
2019-05-06T17:46:02.273Z,2.70
2019-05-06T17:48:42.564Z,3.13
2019-05-06T17:51:13.912Z,3.60
2019-05-06T17:53:44.905Z,4.30
2019-05-06T17:56:13.768Z,3.43
2019-05-06T17:58:42.548Z,3.43
2019-05-06T18:01:16.119Z,3.30
2019-05-06T18:03:44.799Z,3.50
2019-05-06T18:06:15.757Z,3.83
2019-05-06T18:08:46.111Z,3.80
2019-05-06T18:11:15.945Z,3.70
2019-05-06T18:13:45.736Z,3.33
2019-05-06T18:16:14.346Z,3.27
2019-05-06T18:18:43.139Z,3.00
2019-05-06T18:21:12.345Z,3.60
2019-05-06T18:23:41.518Z,3.20
2019-05-06T18:26:10.263Z,3.13
2019-05-06T18:28:39.251Z,2.83
2019-05-06T18:31:07.825Z,2.97
2019-05-06T18:33:36.975Z,2.50
2019-05-06T18:36:07.064Z,3.30
2019-05-06T18:38:38.311Z,2.23
2019-05-06T18:41:07.608Z,2.90
2019-05-06T18:43:36.976Z,2.47
2019-05-06T18:46:08.096Z,2.37
2019-05-06T18:48:38.564Z,2.20
2019-05-06T18:51:07.235Z,2.30
2019-05-06T18:53:36.846Z,1.80
2019-05-06T18:56:05.632Z,1.23
2019-05-06T18:58:34.603Z,1.63
2019-05-06T19:01:06.781Z,1.30
2019-05-06T19:03:49.340Z,1.30
2019-05-06T19:06:18.455Z,1.40
2019-05-06T19:08:52.845Z,1.20
2019-05-06T19:11:22.175Z,1.50
2019-05-06T19:13:52.697Z,1.23
2019-05-06T19:16:22.345Z,1.10
2019-05-06T19:18:52.799Z,1.17
2019-05-06T19:21:24.517Z,1.20
2019-05-06T19:23:54.797Z,1.43
2019-05-06T19:26:23.737Z,1.40
2019-05-06T19:28:52.760Z,1.70
2019-05-06T19:31:22.821Z,1.37
2019-05-06T19:33:52.808Z,1.50
2019-05-06T19:36:23.511Z,1.10
2019-05-06T19:38:53.978Z,1.23
2019-05-06T19:41:23.258Z,1.10
2019-05-06T19:43:52.382Z,1.40
2019-05-06T19:46:21.149Z,1.47
2019-05-06T19:48:49.740Z,1.97
2019-05-06T19:51:18.382Z,1.53
2019-05-06T19:53:47.420Z,1.70
2019-05-06T19:56:16.024Z,1.40
2019-05-06T19:58:44.981Z,1.30
2019-05-06T20:01:13.695Z,1.10
2019-05-06T20:03:42.317Z,1.67
2019-05-06T20:06:15.273Z,1.50
2019-05-06T20:08:52.866Z,1.33
2019-05-06T20:11:26.044Z,1.67
2019-05-06T20:13:54.639Z,1.40
2019-05-06T20:16:23.281Z,2.00
2019-05-06T20:18:52.681Z,1.90
2019-05-06T20:21:23.056Z,1.73
2019-05-06T20:23:52.633Z,2.00
2019-05-06T20:26:21.950Z,3.40
2019-05-06T20:28:52.587Z,1.90
2019-05-06T20:31:22.650Z,2.33
2019-05-06T20:33:52.825Z,1.63
2019-05-06T20:36:22.617Z,1.93
2019-05-06T20:38:51.423Z,1.87
2019-05-06T20:41:22.051Z,2.13
2019-05-06T20:43:50.303Z,2.10
2019-05-06T20:46:19.037Z,2.53
2019-05-06T20:48:47.615Z,2.00
2019-05-06T20:51:16.267Z,1.90
2019-05-06T20:53:44.894Z,2.80
2019-05-06T20:56:13.476Z,2.60
2019-05-06T20:58:42.411Z,2.30
2019-05-06T21:01:11.025Z,2.50
2019-05-06T21:03:39.613Z,3.70
2019-05-06T21:06:08.208Z,2.40
2019-05-06T21:08:36.766Z,1.97
2019-05-06T21:11:05.329Z,2.80
2019-05-06T21:13:35.539Z,3.00
2019-05-06T21:16:04.253Z,2.40
2019-05-06T21:18:32.863Z,2.57
2019-05-06T21:21:02.066Z,2.10
2019-05-06T21:23:32.097Z,2.57
2019-05-06T21:26:03.129Z,2.60
2019-05-06T21:28:31.150Z,2.37
2019-05-06T21:30:59.760Z,3.40
2019-05-06T21:33:28.320Z,3.17
2019-05-06T21:35:56.871Z,2.80
2019-05-06T21:38:25.401Z,3.20
2019-05-06T21:40:53.937Z,2.90
2019-05-06T21:43:22.753Z,2.47
2019-05-06T21:45:51.373Z,3.87
2019-05-06T21:48:22.093Z,2.27
2019-05-06T21:50:52.051Z,2.23
2019-05-06T21:53:20.479Z,2.17
2019-05-06T21:55:49.022Z,3.17
2019-05-06T21:58:17.623Z,2.70
2019-05-06T22:00:53.672Z,2.80
2019-05-06T22:03:22.968Z,3.10
2019-05-06T22:05:54.348Z,2.50
2019-05-06T22:08:23.608Z,3.40
2019-05-06T22:10:52.869Z,2.50
2019-05-06T22:13:21.834Z,3.40
2019-05-06T22:15:50.445Z,2.47
2019-05-06T22:18:18.961Z,2.87
2019-05-06T22:21:07.301Z,2.60
2019-05-06T22:23:49.894Z,2.60
2019-05-06T22:26:18.418Z,3.03
2019-05-06T22:28:47.019Z,3.50
2019-05-06T22:31:15.623Z,3.00
2019-05-06T22:33:45.733Z,2.50
2019-05-06T22:36:15.716Z,2.53
2019-05-06T22:38:44.426Z,3.47
2019-05-06T22:41:13.292Z,2.90
2019-05-06T22:43:42.375Z,2.53
2019-05-06T22:46:12.297Z,2.60
2019-05-06T22:48:43.171Z,3.03
2019-05-06T22:51:12.376Z,3.03
2019-05-06T22:53:42.523Z,2.70
2019-05-06T22:56:12.943Z,2.93
2019-05-06T22:58:42.802Z,3.40
2019-05-06T23:01:29.206Z,2.77
2019-05-06T23:03:57.831Z,3.20
2019-05-06T23:06:26.373Z,2.90
2019-05-06T23:08:54.956Z,3.07
2019-05-06T23:11:23.469Z,3.10
2019-05-06T23:13:53.031Z,2.93
2019-05-06T23:16:21.682Z,2.90
2019-05-06T23:18:52.371Z,2.90
2019-05-06T23:21:23.106Z,3.53
2019-05-06T23:23:54.425Z,3.40
2019-05-06T23:26:22.855Z,3.10
2019-05-06T23:28:52.627Z,4.30
2019-05-06T23:31:24.449Z,3.23
2019-05-06T23:33:53.418Z,3.07
2019-05-06T23:36:22.879Z,2.63
2019-05-06T23:39:28.257Z,3.40
2019-05-06T23:42:32.934Z,3.30
2019-05-06T23:45:38.020Z,3.00
2019-05-06T23:48:43.047Z,2.73
2019-05-06T23:51:47.955Z,3.20
2019-05-06T23:54:53.470Z,3.30
2019-05-06T23:57:22.587Z,3.43
2019-05-06T23:59:51.914Z,3.50
